createdAt,value
2019-05-26T00:01:00.035Z,4.50
2019-05-26T00:03:29.022Z,4.10
2019-05-26T00:05:57.978Z,4.53
2019-05-26T00:08:26.968Z,6.00
2019-05-26T00:10:55.931Z,5.30
2019-05-26T00:13:24.917Z,5.67
2019-05-26T00:15:53.881Z,5.10
2019-05-26T00:18:22.882Z,4.50
2019-05-26T00:20:51.858Z,4.47
2019-05-26T00:23:20.866Z,4.70
2019-05-26T00:25:49.860Z,4.70
2019-05-26T00:28:18.814Z,4.60
2019-05-26T00:30:47.828Z,5.00
2019-05-26T00:33:16.831Z,4.70
2019-05-26T00:35:45.797Z,5.00
2019-05-26T00:38:14.754Z,4.83
2019-05-26T00:40:43.787Z,4.67
2019-05-26T00:43:12.733Z,4.23
2019-05-26T00:45:41.729Z,4.50
2019-05-26T00:48:10.802Z,4.43
2019-05-26T00:50:39.790Z,4.13
2019-05-26T00:53:08.783Z,4.57
2019-05-26T00:55:37.782Z,4.53
2019-05-26T00:58:06.759Z,4.30
2019-05-26T01:00:39.999Z,4.40
2019-05-26T01:03:09.252Z,4.50
2019-05-26T01:05:38.272Z,4.43
2019-05-26T01:08:07.592Z,4.37
2019-05-26T01:10:37.084Z,4.63
2019-05-26T01:13:06.293Z,4.27
2019-05-26T01:15:35.483Z,4.93
2019-05-26T01:18:04.631Z,4.70
2019-05-26T01:20:33.613Z,5.27
2019-05-26T01:23:02.663Z,5.77
2019-05-26T01:25:31.633Z,5.90
2019-05-26T01:28:00.598Z,5.87
2019-05-26T01:30:36.520Z,6.03
2019-05-26T01:33:05.576Z,5.50
2019-05-26T01:35:35.064Z,5.73
2019-05-26T01:38:04.456Z,6.20
2019-05-26T01:40:37.147Z,5.90
2019-05-26T01:43:06.183Z,6.03
2019-05-26T01:45:35.131Z,6.13
2019-05-26T01:48:04.227Z,6.30
2019-05-26T01:50:33.166Z,5.83
2019-05-26T01:53:02.191Z,6.10
2019-05-26T01:55:31.150Z,6.17
2019-05-26T01:58:00.130Z,6.43
2019-05-26T02:00:29.190Z,6.10
2019-05-26T02:02:58.130Z,6.63
2019-05-26T02:05:27.115Z,6.33
2019-05-26T02:07:56.203Z,7.10
2019-05-26T02:10:25.304Z,7.23
2019-05-26T02:12:54.260Z,6.50
2019-05-26T02:15:23.407Z,6.30
2019-05-26T02:17:52.457Z,6.83
2019-05-26T02:20:21.815Z,7.00
2019-05-26T02:22:50.807Z,6.30
2019-05-26T02:25:20.211Z,6.13
2019-05-26T02:27:49.207Z,6.60
2019-05-26T02:30:18.353Z,6.40
2019-05-26T02:32:47.330Z,6.43
2019-05-26T02:35:16.528Z,6.57
2019-05-26T02:37:45.476Z,6.67
2019-05-26T02:40:14.741Z,7.77
2019-05-26T02:42:43.755Z,7.30
2019-05-26T02:45:14.484Z,7.17
2019-05-26T02:47:43.547Z,6.87
2019-05-26T02:50:12.584Z,6.90
2019-05-26T02:52:41.584Z,6.27
2019-05-26T02:55:10.866Z,6.37
2019-05-26T02:57:39.870Z,6.17
2019-05-26T03:00:09.423Z,6.37
2019-05-26T03:02:38.477Z,6.23
2019-05-26T03:05:07.845Z,6.60
2019-05-26T03:07:38.270Z,6.17
2019-05-26T03:10:08.310Z,6.07
2019-05-26T03:12:39.618Z,6.80
2019-05-26T03:15:09.523Z,6.70
2019-05-26T03:17:39.008Z,6.70
2019-05-26T03:20:08.263Z,6.70
2019-05-26T03:22:38.726Z,6.63
2019-05-26T03:25:07.776Z,7.40
2019-05-26T03:27:36.769Z,6.80
2019-05-26T03:30:05.850Z,7.53
2019-05-26T03:32:34.790Z,7.00
2019-05-26T03:35:04.132Z,7.10
2019-05-26T03:37:33.145Z,7.10
2019-05-26T03:40:02.127Z,7.13
2019-05-26T03:42:31.128Z,7.57
2019-05-26T03:45:00.066Z,7.50
2019-05-26T03:47:29.050Z,7.70
2019-05-26T03:49:58.012Z,8.17
2019-05-26T03:52:27.002Z,7.03
2019-05-26T03:54:56.082Z,7.50
2019-05-26T03:57:25.071Z,7.90
2019-05-26T03:59:54.024Z,8.20
2019-05-26T04:02:23.015Z,7.57
2019-05-26T04:04:51.969Z,7.60
2019-05-26T04:07:21.051Z,7.40
2019-05-26T04:10:03.888Z,7.23
2019-05-26T04:12:20.668Z,7.47
2019-05-26T04:14:49.635Z,7.37
2019-05-26T04:17:18.601Z,6.83
2019-05-26T04:19:47.589Z,7.47
2019-05-26T04:22:16.560Z,6.87
2019-05-26T04:24:45.510Z,7.27
2019-05-26T04:27:14.501Z,7.13
2019-05-26T04:29:43.454Z,6.97
2019-05-26T04:32:12.436Z,7.30
2019-05-26T04:34:41.388Z,6.47
2019-05-26T04:37:10.388Z,7.97
2019-05-26T04:39:39.336Z,8.07
2019-05-26T04:42:08.287Z,7.40
2019-05-26T04:44:37.302Z,7.73
2019-05-26T04:47:06.252Z,6.90
2019-05-26T04:49:37.711Z,6.90
2019-05-26T04:52:05.821Z,7.27
2019-05-26T04:54:34.795Z,6.40
2019-05-26T04:57:03.884Z,6.00
2019-05-26T04:59:32.817Z,6.20
2019-05-26T05:02:01.916Z,6.40
2019-05-26T05:04:30.896Z,6.70
2019-05-26T05:06:59.852Z,6.80
2019-05-26T05:09:28.835Z,6.57
2019-05-26T05:11:57.786Z,6.10
2019-05-26T05:14:26.772Z,6.80
2019-05-26T05:16:55.723Z,6.43
2019-05-26T05:19:24.719Z,7.27
2019-05-26T05:21:53.663Z,7.13
2019-05-26T05:24:22.750Z,7.03
2019-05-26T05:26:51.699Z,6.70
2019-05-26T05:29:20.642Z,6.63
2019-05-26T05:31:49.637Z,6.40
2019-05-26T05:34:18.583Z,6.53
2019-05-26T05:36:47.566Z,4.57
2019-05-26T05:39:16.614Z,5.43
2019-05-26T05:41:45.598Z,4.93
2019-05-26T05:44:14.587Z,4.80
2019-05-26T05:46:43.547Z,4.37
2019-05-26T05:49:12.528Z,4.27
2019-05-26T05:51:41.519Z,4.07
2019-05-26T05:54:10.467Z,4.60
2019-05-26T05:56:39.443Z,4.23
2019-05-26T05:59:08.432Z,4.33
2019-05-26T06:01:37.407Z,3.90
2019-05-26T06:04:06.365Z,3.57
2019-05-26T06:06:35.338Z,3.87
2019-05-26T06:09:05.181Z,3.50
2019-05-26T06:11:34.166Z,3.60
2019-05-26T06:14:04.215Z,3.67
2019-05-26T06:16:33.207Z,4.20
2019-05-26T06:19:02.150Z,3.80
2019-05-26T06:21:31.137Z,3.77
2019-05-26T06:24:00.091Z,3.53
2019-05-26T06:26:29.102Z,3.67
2019-05-26T06:28:58.059Z,4.20
2019-05-26T06:31:27.095Z,3.53
2019-05-26T06:33:56.112Z,3.40
2019-05-26T06:36:25.137Z,3.80
2019-05-26T06:38:54.078Z,3.50
2019-05-26T06:41:32.938Z,3.30
2019-05-26T06:43:53.917Z,3.60
2019-05-26T06:46:22.917Z,3.30
2019-05-26T06:48:51.874Z,3.73
2019-05-26T06:51:20.859Z,3.63
2019-05-26T06:53:49.853Z,3.23
2019-05-26T06:56:18.830Z,3.20
2019-05-26T06:58:47.799Z,3.10
2019-05-26T07:01:16.803Z,3.47
2019-05-26T07:03:45.803Z,3.40
2019-05-26T07:06:14.783Z,3.40
2019-05-26T07:08:43.787Z,3.00
2019-05-26T07:11:12.879Z,2.83
2019-05-26T07:13:41.843Z,3.27
2019-05-26T07:16:10.791Z,3.13
2019-05-26T07:18:39.787Z,3.00
2019-05-26T07:21:08.763Z,2.77
2019-05-26T07:23:37.711Z,2.80
2019-05-26T07:26:06.741Z,2.90
2019-05-26T07:28:35.693Z,2.80
2019-05-26T07:31:04.894Z,3.07
2019-05-26T07:33:33.842Z,2.53
2019-05-26T07:36:02.839Z,2.47
2019-05-26T07:38:31.779Z,2.53
2019-05-26T07:41:00.986Z,2.43
2019-05-26T07:43:29.963Z,2.07
2019-05-26T07:45:58.949Z,2.80
2019-05-26T07:48:27.956Z,3.27
2019-05-26T07:50:56.954Z,2.53
2019-05-26T07:53:25.957Z,2.90
2019-05-26T07:55:54.950Z,2.97
2019-05-26T07:58:23.971Z,2.70
2019-05-26T08:00:52.955Z,3.00
2019-05-26T08:03:21.929Z,2.60
2019-05-26T08:05:50.915Z,2.30
2019-05-26T08:08:19.990Z,2.83
2019-05-26T08:10:48.947Z,2.57
2019-05-26T08:13:18.000Z,2.47
2019-05-26T08:15:46.980Z,2.53
2019-05-26T08:18:15.963Z,2.50
2019-05-26T08:20:45.031Z,2.73
2019-05-26T08:23:13.992Z,2.20
2019-05-26T08:25:43.042Z,2.40
2019-05-26T08:28:11.984Z,2.80
2019-05-26T08:30:40.978Z,2.77
2019-05-26T08:33:09.935Z,2.50
2019-05-26T08:35:38.888Z,2.50
2019-05-26T08:38:07.875Z,2.60
2019-05-26T08:40:36.852Z,2.37
2019-05-26T08:43:05.881Z,2.27
2019-05-26T08:45:34.850Z,2.20
2019-05-26T08:48:03.838Z,2.30
2019-05-26T08:50:34.471Z,2.33
2019-05-26T08:53:03.590Z,2.20
2019-05-26T08:55:32.537Z,2.60
2019-05-26T08:58:01.530Z,2.67
2019-05-26T09:00:30.623Z,2.77
2019-05-26T09:02:59.571Z,2.90
2019-05-26T09:05:28.575Z,2.80
2019-05-26T09:07:57.556Z,2.97
2019-05-26T09:10:26.689Z,2.60
2019-05-26T09:13:01.276Z,2.70
2019-05-26T09:15:26.296Z,2.80
2019-05-26T09:17:55.281Z,2.90
2019-05-26T09:20:24.375Z,2.70
2019-05-26T09:22:53.327Z,3.00
2019-05-26T09:25:22.314Z,3.00
2019-05-26T09:27:51.259Z,3.00
2019-05-26T09:30:20.614Z,2.80
2019-05-26T09:32:49.656Z,2.57
2019-05-26T09:35:18.706Z,2.90
2019-05-26T09:37:47.685Z,2.60
2019-05-26T09:40:17.080Z,2.90
2019-05-26T09:42:46.071Z,2.90
2019-05-26T09:45:16.627Z,2.70
2019-05-26T09:47:45.607Z,3.03
2019-05-26T09:50:14.654Z,3.07
2019-05-26T09:52:43.669Z,2.80
2019-05-26T09:55:12.781Z,2.80
2019-05-26T09:57:41.798Z,2.70
2019-05-26T10:00:15.865Z,2.60
2019-05-26T10:02:42.768Z,2.77
2019-05-26T10:05:11.760Z,2.60
2019-05-26T10:07:40.694Z,2.47
2019-05-26T10:10:09.983Z,2.30
2019-05-26T10:12:38.971Z,2.67
2019-05-26T10:15:09.527Z,2.73
2019-05-26T10:17:38.521Z,2.43
2019-05-26T10:20:08.119Z,2.47
2019-05-26T10:22:37.067Z,2.47
2019-05-26T10:25:06.679Z,2.23
2019-05-26T10:27:35.693Z,2.87
2019-05-26T10:30:04.855Z,2.20
2019-05-26T10:32:33.868Z,2.10
2019-05-26T10:35:02.820Z,2.40
2019-05-26T10:37:31.823Z,2.23
2019-05-26T10:40:00.782Z,2.30
2019-05-26T10:42:29.791Z,2.37
2019-05-26T10:44:58.821Z,2.17
2019-05-26T10:47:27.775Z,1.97
2019-05-26T10:49:56.773Z,1.80
2019-05-26T10:52:25.824Z,2.10
2019-05-26T10:54:54.797Z,2.73
2019-05-26T10:57:23.747Z,2.87
2019-05-26T10:59:52.740Z,2.10
2019-05-26T11:02:21.699Z,2.10
2019-05-26T11:04:50.683Z,1.73
2019-05-26T11:07:19.618Z,1.60
2019-05-26T11:09:48.613Z,2.10
2019-05-26T11:12:17.570Z,1.90
2019-05-26T11:14:46.542Z,1.77
2019-05-26T11:17:15.495Z,1.60
2019-05-26T11:19:44.469Z,1.60
2019-05-26T11:22:13.424Z,1.77
2019-05-26T11:24:42.430Z,2.07
2019-05-26T11:27:13.302Z,1.70
2019-05-26T11:29:42.015Z,2.10
2019-05-26T11:32:11.004Z,2.00
2019-05-26T11:34:39.958Z,1.80
2019-05-26T11:37:08.943Z,1.70
2019-05-26T11:39:37.878Z,2.00
2019-05-26T11:42:13.241Z,1.70
2019-05-26T11:44:37.588Z,1.60
2019-05-26T11:47:06.676Z,1.70
2019-05-26T11:49:35.899Z,2.20
2019-05-26T11:52:04.984Z,1.87
2019-05-26T11:54:34.783Z,2.10
2019-05-26T11:57:03.975Z,2.20
2019-05-26T11:59:32.935Z,2.10
2019-05-26T12:02:02.043Z,2.10
2019-05-26T12:04:30.993Z,2.27
2019-05-26T12:06:59.942Z,2.17
2019-05-26T12:09:28.934Z,2.00
2019-05-26T12:11:57.870Z,2.13
2019-05-26T12:14:34.717Z,1.87
2019-05-26T12:16:57.456Z,1.80
2019-05-26T12:19:26.463Z,2.00
2019-05-26T12:21:55.442Z,2.07
2019-05-26T12:24:24.395Z,2.20
2019-05-26T12:26:53.375Z,1.90
2019-05-26T12:29:22.317Z,2.20
2019-05-26T12:31:51.314Z,1.97
2019-05-26T12:34:20.296Z,2.20
2019-05-26T12:36:49.251Z,2.00
2019-05-26T12:39:18.238Z,2.00
2019-05-26T12:41:47.246Z,2.20
2019-05-26T12:44:16.226Z,2.10
2019-05-26T12:46:45.220Z,2.07
2019-05-26T12:49:14.187Z,2.30
2019-05-26T12:51:43.213Z,1.80
2019-05-26T12:54:12.396Z,1.97
2019-05-26T12:56:41.355Z,2.10
2019-05-26T12:59:10.303Z,1.90
2019-05-26T13:01:39.354Z,2.20
2019-05-26T13:04:08.230Z,2.00
2019-05-26T13:06:37.174Z,2.13
2019-05-26T13:09:07.857Z,2.13
2019-05-26T13:11:36.792Z,2.10
2019-05-26T13:14:05.780Z,2.13
2019-05-26T13:16:35.891Z,2.20
2019-05-26T13:19:05.293Z,2.20
2019-05-26T13:21:34.339Z,2.10
2019-05-26T13:24:04.216Z,2.17
2019-05-26T13:26:33.163Z,2.27
2019-05-26T13:29:02.161Z,2.57
2019-05-26T13:31:31.123Z,2.27
2019-05-26T13:34:00.098Z,2.20
2019-05-26T13:36:29.050Z,2.30
2019-05-26T13:38:58.023Z,2.60
2019-05-26T13:41:27.019Z,2.20
2019-05-26T13:43:55.978Z,2.10
2019-05-26T13:46:24.998Z,2.37
2019-05-26T13:48:53.975Z,2.10
2019-05-26T13:51:23.140Z,2.40
2019-05-26T13:53:52.138Z,2.20
2019-05-26T13:56:21.079Z,2.00
2019-05-26T13:58:50.073Z,1.93
2019-05-26T14:01:19.034Z,2.23
2019-05-26T14:03:48.015Z,2.00
2019-05-26T14:06:16.971Z,2.17
2019-05-26T14:08:46.467Z,2.27
2019-05-26T14:11:15.410Z,2.20
2019-05-26T14:13:44.391Z,2.47
2019-05-26T14:16:13.535Z,1.83
2019-05-26T14:18:43.335Z,2.10
2019-05-26T14:21:12.397Z,2.20
2019-05-26T14:23:41.306Z,2.30
2019-05-26T14:26:10.311Z,2.10
2019-05-26T14:28:39.267Z,1.97
2019-05-26T14:31:08.213Z,2.33
2019-05-26T14:33:37.211Z,2.10
2019-05-26T14:36:06.200Z,2.33
2019-05-26T14:38:43.265Z,2.40
2019-05-26T14:41:05.786Z,1.83
2019-05-26T14:43:34.781Z,2.10
2019-05-26T14:46:03.739Z,2.10
2019-05-26T14:48:32.739Z,2.20
2019-05-26T14:51:01.683Z,2.00
2019-05-26T14:53:30.649Z,2.20
2019-05-26T14:55:59.611Z,2.23
2019-05-26T14:58:28.593Z,2.10
2019-05-26T15:00:57.524Z,2.10
2019-05-26T15:03:26.655Z,2.07
2019-05-26T15:06:05.462Z,2.50
2019-05-26T15:08:26.307Z,2.10
2019-05-26T15:10:55.337Z,2.20
2019-05-26T15:13:24.342Z,2.40
2019-05-26T15:16:08.356Z,2.27
2019-05-26T15:18:23.890Z,2.30
2019-05-26T15:20:55.880Z,2.50
2019-05-26T15:23:23.483Z,2.30
2019-05-26T15:25:52.444Z,2.20
2019-05-26T15:28:21.447Z,2.20
2019-05-26T15:30:50.533Z,2.47
2019-05-26T15:33:19.485Z,2.70
2019-05-26T15:35:48.470Z,2.67
2019-05-26T15:38:17.441Z,2.60
2019-05-26T15:40:46.431Z,2.77
2019-05-26T15:43:15.392Z,2.70
2019-05-26T15:45:44.383Z,2.57
2019-05-26T15:48:13.366Z,2.83
2019-05-26T15:50:42.316Z,2.80
2019-05-26T15:53:11.318Z,2.50
2019-05-26T15:55:40.516Z,2.83
2019-05-26T15:58:09.556Z,3.10
2019-05-26T16:00:38.580Z,2.57
2019-05-26T16:03:07.631Z,2.60
2019-05-26T16:05:36.503Z,2.83
2019-05-26T16:08:05.511Z,2.60
2019-05-26T16:10:34.462Z,2.50
2019-05-26T16:13:03.407Z,2.70
2019-05-26T16:15:32.396Z,2.70
2019-05-26T16:18:01.481Z,2.80
2019-05-26T16:20:30.478Z,2.87
2019-05-26T16:22:59.418Z,2.80
2019-05-26T16:25:28.426Z,2.57
2019-05-26T16:27:57.367Z,2.57
2019-05-26T16:30:26.373Z,3.20
2019-05-26T16:32:55.358Z,2.70
2019-05-26T16:35:24.309Z,3.10
2019-05-26T16:37:53.312Z,3.17
2019-05-26T16:40:22.262Z,3.00
2019-05-26T16:42:51.207Z,3.43
2019-05-26T16:45:20.368Z,3.23
2019-05-26T16:47:49.341Z,3.10
2019-05-26T16:50:18.396Z,3.10
2019-05-26T16:52:47.378Z,3.40
2019-05-26T16:55:16.349Z,3.30
2019-05-26T16:57:45.327Z,3.53
2019-05-26T17:00:14.405Z,3.60
2019-05-26T17:02:43.371Z,3.80
2019-05-26T17:05:12.346Z,3.93
2019-05-26T17:07:41.282Z,3.80
2019-05-26T17:10:10.388Z,3.53
2019-05-26T17:12:39.402Z,3.27
2019-05-26T17:15:08.646Z,3.90
2019-05-26T17:17:37.635Z,3.90
2019-05-26T17:20:06.722Z,3.63
2019-05-26T17:22:35.724Z,3.70
2019-05-26T17:25:04.998Z,3.73
2019-05-26T17:27:33.950Z,4.23
2019-05-26T17:30:02.984Z,3.90
2019-05-26T17:32:31.986Z,4.17
2019-05-26T17:35:00.963Z,4.23
2019-05-26T17:37:29.910Z,4.40
2019-05-26T17:39:59.427Z,4.10
2019-05-26T17:42:28.481Z,4.47
2019-05-26T17:44:57.409Z,4.60
2019-05-26T17:47:30.465Z,4.30
2019-05-26T17:49:56.991Z,4.50
2019-05-26T17:52:26.049Z,4.17
2019-05-26T17:54:54.991Z,4.37
2019-05-26T17:57:23.972Z,4.23
2019-05-26T17:59:52.972Z,4.57
2019-05-26T18:02:21.951Z,4.50
2019-05-26T18:04:50.949Z,6.00
2019-05-26T18:07:19.906Z,30.10
2019-05-26T18:09:48.888Z,15.13
2019-05-26T18:12:17.883Z,13.23
2019-05-26T18:14:46.827Z,6.40
2019-05-26T18:17:15.819Z,5.43
2019-05-26T18:19:44.769Z,5.57
2019-05-26T18:22:13.761Z,5.10
2019-05-26T18:24:54.476Z,5.00
2019-05-26T18:27:13.318Z,4.83
2019-05-26T18:29:42.359Z,4.80
2019-05-26T18:32:11.424Z,4.90
2019-05-26T18:34:40.470Z,5.03
2019-05-26T18:37:09.424Z,5.20
2019-05-26T18:39:38.370Z,5.43
2019-05-26T18:42:07.444Z,5.13
2019-05-26T18:44:36.471Z,4.97
2019-05-26T18:47:05.589Z,5.17
2019-05-26T18:49:34.571Z,5.30
2019-05-26T18:52:03.553Z,4.73
2019-05-26T18:54:32.519Z,5.10
2019-05-26T18:57:01.489Z,4.90
2019-05-26T18:59:30.456Z,4.90
2019-05-26T19:01:59.415Z,5.07
2019-05-26T19:04:28.419Z,6.00
2019-05-26T19:06:57.423Z,5.17
2019-05-26T19:09:26.366Z,4.80
2019-05-26T19:11:55.429Z,5.10
2019-05-26T19:14:24.432Z,4.83
2019-05-26T19:16:53.384Z,5.03
2019-05-26T19:19:22.376Z,4.60
2019-05-26T19:21:51.370Z,5.20
2019-05-26T19:24:20.359Z,4.77
2019-05-26T19:26:49.323Z,4.60
2019-05-26T19:29:18.305Z,5.43
2019-05-26T19:31:47.254Z,4.87
2019-05-26T19:34:16.202Z,4.80
2019-05-26T19:36:45.203Z,5.27
2019-05-26T19:39:14.460Z,5.47
2019-05-26T19:41:43.438Z,5.20
2019-05-26T19:44:12.486Z,5.20
2019-05-26T19:46:41.431Z,5.37
2019-05-26T19:49:10.435Z,5.00
2019-05-26T19:51:39.443Z,5.17
2019-05-26T19:54:08.378Z,5.33
2019-05-26T19:56:37.363Z,5.27
2019-05-26T19:59:06.332Z,5.90
2019-05-26T20:01:35.327Z,6.90
2019-05-26T20:04:04.399Z,7.37
2019-05-26T20:06:33.395Z,6.60
2019-05-26T20:09:02.443Z,7.40
2019-05-26T20:11:31.458Z,7.07
2019-05-26T20:14:00.402Z,7.40
2019-05-26T20:16:30.910Z,6.83
2019-05-26T20:18:59.994Z,6.37
2019-05-26T20:21:28.947Z,6.20
2019-05-26T20:23:57.935Z,5.47
2019-05-26T20:26:26.875Z,6.13
2019-05-26T20:28:55.887Z,5.67
2019-05-26T20:31:24.847Z,5.80
2019-05-26T20:33:53.835Z,5.60
2019-05-26T20:36:22.819Z,5.57
2019-05-26T20:38:51.819Z,5.50
2019-05-26T20:41:20.772Z,5.13
2019-05-26T20:43:49.846Z,5.37
2019-05-26T20:46:18.744Z,4.90
2019-05-26T20:48:47.744Z,5.20
2019-05-26T20:51:16.689Z,5.00
2019-05-26T20:53:45.670Z,5.27
2019-05-26T20:56:14.623Z,5.13
2019-05-26T20:58:43.638Z,4.73
2019-05-26T21:01:12.639Z,4.87
2019-05-26T21:03:41.644Z,4.63
2019-05-26T21:06:10.657Z,5.13
2019-05-26T21:08:39.589Z,4.87
2019-05-26T21:11:08.593Z,5.10
2019-05-26T21:13:37.547Z,5.20
2019-05-26T21:16:06.531Z,5.00
2019-05-26T21:18:35.473Z,4.97
2019-05-26T21:21:04.479Z,4.70
2019-05-26T21:23:33.431Z,5.20
2019-05-26T21:26:02.383Z,4.90
2019-05-26T21:28:31.358Z,5.00
2019-05-26T21:31:00.480Z,5.80
2019-05-26T21:33:29.429Z,5.40
2019-05-26T21:35:58.391Z,5.17
2019-05-26T21:38:27.372Z,5.10
2019-05-26T21:40:56.323Z,4.90
2019-05-26T21:43:25.310Z,4.93
2019-05-26T21:45:54.327Z,5.10
2019-05-26T21:48:23.307Z,5.10
2019-05-26T21:50:52.267Z,5.00
2019-05-26T21:53:21.263Z,5.30
2019-05-26T21:55:50.203Z,5.37
2019-05-26T21:58:19.203Z,5.03
2019-05-26T22:00:49.352Z,5.30
2019-05-26T22:03:18.551Z,5.23
2019-05-26T22:05:47.507Z,5.47
2019-05-26T22:08:16.481Z,5.13
2019-05-26T22:10:45.431Z,5.83
2019-05-26T22:13:14.418Z,5.83
2019-05-26T22:15:43.435Z,5.47
2019-05-26T22:18:12.422Z,5.80
2019-05-26T22:20:41.369Z,5.43
2019-05-26T22:23:10.388Z,5.73
2019-05-26T22:25:39.381Z,5.57
2019-05-26T22:28:08.431Z,5.10
2019-05-26T22:30:37.429Z,5.53
2019-05-26T22:33:06.366Z,5.60
2019-05-26T22:35:35.351Z,5.40
2019-05-26T22:38:04.318Z,5.30
2019-05-26T22:40:33.295Z,5.73
2019-05-26T22:43:02.243Z,5.13
2019-05-26T22:45:31.246Z,5.23
2019-05-26T22:48:00.199Z,4.77
2019-05-26T22:50:29.166Z,4.90
2019-05-26T22:52:58.139Z,5.10
2019-05-26T22:55:27.127Z,4.77
2019-05-26T22:57:56.069Z,5.37
2019-05-26T23:00:25.172Z,4.43
2019-05-26T23:02:54.214Z,4.70
2019-05-26T23:05:23.227Z,4.80
2019-05-26T23:07:52.178Z,4.83
2019-05-26T23:10:21.200Z,5.20
2019-05-26T23:12:50.143Z,4.97
2019-05-26T23:15:19.148Z,5.40
2019-05-26T23:17:48.098Z,5.10
2019-05-26T23:20:17.051Z,4.97
2019-05-26T23:22:46.031Z,5.20
2019-05-26T23:25:15.078Z,4.90
2019-05-26T23:27:44.070Z,5.10
2019-05-26T23:30:13.059Z,5.00
2019-05-26T23:32:41.998Z,5.40
2019-05-26T23:35:11.095Z,5.33
2019-05-26T23:37:40.083Z,5.10
2019-05-26T23:40:09.172Z,4.70
2019-05-26T23:42:38.105Z,5.53
2019-05-26T23:45:07.408Z,4.97
2019-05-26T23:47:36.440Z,5.87
2019-05-26T23:50:05.543Z,6.83
2019-05-26T23:52:34.537Z,6.73
2019-05-26T23:55:03.507Z,7.27
2019-05-26T23:57:32.481Z,6.50
